Time;durP1;ratioP1;P1;durP2;ratioP2;P2;SDS_P1;SDS_P2;PMS_P1;PMS_P2;Temp;Humidity;BMP_temperature;BMP_pressure;BME280_temperature;BME280_humidity;BME280_pressure;Samples;Min_cycle;Max_cycle;Signal;HPM_P1;HPM_P2
2022/11/30 00:02:19;;;;;;;27.95;25.42;;;;;;;10.78;63.93;102159.22;4975153;28;20133;-71
2022/11/30 00:04:44;;;;;;;25.48;22.92;;;;;;;10.79;63.69;102160.06;4991319;28;20041;-70
2022/11/30 00:07:10;;;;;;;26.63;24.13;;;;;;;10.79;63.71;102157.38;4976159;28;20042;-73
2022/11/30 00:09:35;;;;;;;24.35;22.17;;;;;;;10.78;63.76;102153.81;4975278;28;20031;-73
2022/11/30 00:12:00;;;;;;;25.67;23.25;;;;;;;10.79;63.79;102149.25;4976555;28;20357;-71
2022/11/30 00:14:26;;;;;;;26.10;23.70;;;;;;;10.78;63.91;102150.28;4976276;28;20082;-72
2022/11/30 00:16:51;;;;;;;25.42;23.05;;;;;;;10.78;63.75;102151.09;4975959;28;20078;-70
2022/11/30 00:19:16;;;;;;;26.45;23.92;;;;;;;10.77;63.72;102154.88;4975814;28;20054;-70
2022/11/30 00:21:42;;;;;;;26.58;23.70;;;;;;;10.77;64.07;102154.03;4974757;28;20062;-70
2022/11/30 00:24:07;;;;;;;27.65;24.88;;;;;;;10.78;63.76;102155.69;4990840;28;20042;-70
2022/11/30 00:26:33;;;;;;;24.33;21.98;;;;;;;10.78;63.91;102153.00;4975579;28;20487;-70
2022/11/30 00:28:58;;;;;;;25.52;22.95;;;;;;;10.77;63.99;102160.28;4976194;28;20459;-71
2022/11/30 00:31:24;;;;;;;26.70;24.17;;;;;;;10.77;63.85;102156.75;4975613;28;20403;-72
2022/11/30 00:33:49;;;;;;;26.77;24.33;;;;;;;10.76;63.71;102153.22;4974466;28;20053;-73
2022/11/30 00:36:18;;;;;;;26.40;23.70;;;;;;;10.77;63.64;102154.03;4990590;28;20038;-70
2022/11/30 00:38:43;;;;;;;26.30;23.58;;;;;;;10.76;63.71;102155.06;4975621;28;20031;-71
2022/11/30 00:41:10;;;;;;;24.95;22.65;;;;;;;10.76;63.89;102155.91;4975576;28;20137;-71
2022/11/30 00:43:35;;;;;;;25.88;23.58;;;;;;;10.77;63.79;102148.63;4975613;28;20039;-72
2022/11/30 00:46:01;;;;;;;27.23;24.75;;;;;;;10.76;63.83;102150.50;4975474;28;20374;-71
2022/11/30 00:48:27;;;;;;;26.90;24.63;;;;;;;10.76;63.91;102166.72;4975280;28;20073;-70
2022/11/30 00:50:52;;;;;;;25.25;23.02;;;;;;;10.76;63.88;102166.72;4974250;28;20061;-71
2022/11/30 00:53:19;;;;;;;27.08;24.55;;;;;;;10.77;63.50;102167.56;4974302;28;20035;-70
2022/11/30 00:55:45;;;;;;;25.83;23.35;;;;;;;10.76;63.68;102171.28;4975061;28;20034;-70
2022/11/30 00:58:11;;;;;;;27.50;24.48;;;;;;;10.77;63.67;102170.25;4975278;28;20471;-72
2022/11/30 01:00:37;;;;;;;25.27;22.88;;;;;;;10.76;64.03;102169.44;4974884;28;20038;-71
2022/11/30 01:03:02;;;;;;;24.88;22.42;;;;;;;10.76;63.85;102171.28;4974732;28;20386;-70
2022/11/30 01:05:28;;;;;;;26.45;23.88;;;;;;;10.76;63.79;102173.97;4975082;28;20034;-71
2022/11/30 01:07:54;;;;;;;26.13;23.92;;;;;;;10.76;64.02;102177.53;4975142;28;20117;-71
2022/11/30 01:10:19;;;;;;;27.60;24.70;;;;;;;10.75;63.93;102186.66;4974996;28;20412;-72
2022/11/30 01:12:45;;;;;;;26.10;23.83;;;;;;;10.75;63.84;102175.84;4974993;28;20093;-72
2022/11/30 01:15:10;;;;;;;24.08;21.75;;;;;;;10.76;63.91;102176.69;4974988;28;20035;-72
2022/11/30 01:17:36;;;;;;;25.30;23.00;;;;;;;10.75;63.69;102183.97;4975210;28;20423;-71
2022/11/30 01:20:01;;;;;;;25.65;23.52;;;;;;;10.75;63.70;102183.97;4990644;28;20062;-71
2022/11/30 01:22:27;;;;;;;25.58;23.20;;;;;;;10.76;63.62;102173.97;4974604;28;20045;-71
2022/11/30 01:24:53;;;;;;;25.98;23.27;;;;;;;10.75;63.67;102175.84;4974864;28;20046;-71
2022/11/30 01:27:18;;;;;;;25.90;23.65;;;;;;;10.75;63.98;102175.03;4974797;28;20113;-71
2022/11/30 01:29:43;;;;;;;25.77;23.58;;;;;;;10.75;63.79;102181.25;4973621;28;20062;-71
2022/11/30 01:32:09;;;;;;;25.17;22.98;;;;;;;10.75;63.85;102183.16;4974998;28;20035;-70
2022/11/30 01:34:34;;;;;;;25.00;22.63;;;;;;;10.75;63.90;102180.44;4974729;28;20037;-71
2022/11/30 01:36:59;;;;;;;24.67;22.58;;;;;;;10.75;63.85;102177.75;4973545;28;20117;-72
2022/11/30 01:39:25;;;;;;;27.33;25.08;;;;;;;10.74;63.83;102184.19;4974424;28;20402;-72
2022/11/30 01:41:53;;;;;;;24.48;22.17;;;;;;;10.75;64.05;102175.03;4973233;28;20391;-71
2022/11/30 01:44:25;;;;;;;26.55;24.30;;;;;;;10.73;63.77;102177.94;4973051;28;20081;-72
2022/11/30 01:47:02;;;;;;;23.05;20.98;;;;;;;10.74;63.73;102176.09;4974658;28;20027;-70
2022/11/30 01:49:43;;;;;;;27.23;24.60;;;;;;;10.74;63.57;102178.78;4973901;28;20210;-71
2022/11/30 01:52:14;;;;;;;23.08;20.98;;;;;;;10.73;63.87;102177.09;4989813;28;20038;-73
2022/11/30 01:54:46;;;;;;;26.35;24.10;;;;;;;10.73;63.75;102169.00;4974513;28;20157;-71
2022/11/30 01:57:29;;;;;;;25.92;23.88;;;;;;;10.72;63.84;102170.06;4974824;28;20031;-72
2022/11/30 01:59:59;;;;;;;24.55;22.23;;;;;;;10.73;63.73;102179.81;4975081;28;20023;-71
2022/11/30 02:02:32;;;;;;;25.77;23.48;;;;;;;10.72;63.76;102180.88;4974373;28;20034;-72
2022/11/30 02:04:58;;;;;;;23.73;21.73;;;;;;;10.72;63.73;102184.41;4974853;28;20055;-71
2022/11/30 02:07:24;;;;;;;25.60;23.38;;;;;;;10.72;63.82;102187.09;4972877;28;20178;-70
2022/11/30 02:09:49;;;;;;;23.88;21.75;;;;;;;10.72;63.92;102186.28;4974148;28;20059;-70
2022/11/30 02:12:43;;;;;;;24.77;22.92;;;;;;;10.73;63.83;102179.81;4989503;28;20464;-71
2022/11/30 02:15:14;;;;;;;24.48;22.40;;;;;;;10.71;63.78;102180.03;4993714;28;20375;-73
2022/11/30 02:17:52;;;;;;;23.58;21.65;;;;;;;10.71;63.73;102182.75;4978158;28;20058;-72
2022/11/30 02:20:36;;;;;;;23.58;21.77;;;;;;;10.71;63.77;102180.03;4978473;28;20092;-70
2022/11/30 02:23:17;;;;;;;23.17;21.33;;;;;;;10.71;63.73;102182.75;4977825;28;20474;-72
2022/11/30 02:26:04;;;;;;;25.20;22.98;;;;;;;10.71;63.73;102190.00;4977994;28;20113;-72
2022/11/30 02:28:55;;;;;;;23.13;21.33;;;;;;;10.71;63.81;102188.16;4956813;28;20129;-72
2022/11/30 02:31:27;;;;;;;24.33;22.35;;;;;;;10.71;63.79;102187.28;4971949;28;20035;-71
2022/11/30 02:33:56;;;;;;;23.50;21.67;;;;;;;10.71;63.74;102187.28;4978477;28;20054;-71
2022/11/30 02:36:23;;;;;;;23.38;21.30;;;;;;;10.71;63.89;102190.84;4977941;28;20035;-72
2022/11/30 02:38:49;;;;;;;24.55;22.38;;;;;;;10.71;63.85;102188.16;4978389;28;20039;-73
2022/11/30 02:41:14;;;;;;;22.95;21.05;;;;;;;10.71;63.83;102182.75;4977981;28;20102;-73
2022/11/30 02:43:40;;;;;;;24.17;22.08;;;;;;;10.71;63.78;102190.84;4977730;28;20038;-70
2022/11/30 02:46:16;;;;;;;24.15;22.23;;;;;;;10.71;63.74;102184.59;4977686;28;20029;-70
2022/11/30 02:48:44;;;;;;;25.42;23.08;;;;;;;10.70;63.71;102183.75;4975935;28;20042;-73
2022/11/30 02:51:16;;;;;;;25.63;23.25;;;;;;;10.71;63.84;102192.69;4977737;28;20173;-70
2022/11/30 02:53:43;;;;;;;26.08;23.65;;;;;;;10.71;63.52;102190.00;4977537;28;20034;-72
2022/11/30 02:56:08;;;;;;;23.38;21.38;;;;;;;10.71;63.83;102193.56;4993264;28;20061;-70
2022/11/30 02:58:34;;;;;;;24.45;22.52;;;;;;;10.71;63.84;102198.97;4976227;28;20071;-72
2022/11/30 03:00:59;;;;;;;24.88;22.98;;;;;;;10.71;63.69;102198.97;4977182;28;20073;-72
2022/11/30 03:03:25;;;;;;;24.25;22.40;;;;;;;10.70;63.79;102199.97;4977428;28;20031;-77
2022/11/30 03:05:50;;;;;;;21.42;19.63;;;;;;;10.70;63.68;102205.38;4977052;28;20030;-70
2022/11/30 03:08:16;;;;;;;23.45;21.73;;;;;;;10.72;63.77;102205.19;4977059;28;20080;-71
2022/11/30 03:10:41;;;;;;;23.70;21.80;;;;;;;10.71;63.68;102203.50;4976882;28;20037;-72
2022/11/30 03:13:06;;;;;;;23.35;21.63;;;;;;;10.71;63.79;102204.34;4992220;28;20467;-71
2022/11/30 03:15:32;;;;;;;24.27;22.23;;;;;;;10.71;63.61;102198.97;4977354;28;20126;-70
2022/11/30 03:18:01;;;;;;;24.95;22.98;;;;;;;10.71;63.53;102201.66;4976144;28;20086;-70
2022/11/30 03:20:26;;;;;;;23.08;21.27;;;;;;;10.71;63.79;102201.66;4976029;28;20423;-72
2022/11/30 03:22:51;;;;;;;22.05;20.35;;;;;;;10.71;63.65;102198.09;4976618;28;20030;-71
2022/11/30 03:25:17;;;;;;;23.92;22.10;;;;;;;10.71;63.89;102209.75;4974996;28;20090;-70
2022/11/30 03:27:42;;;;;;;25.10;23.00;;;;;;;10.71;63.70;102212.47;4977172;28;20053;-70
2022/11/30 03:30:08;;;;;;;23.80;21.88;;;;;;;10.71;63.63;102206.22;4977200;28;20031;-73
2022/11/30 03:32:33;;;;;;;24.33;22.17;;;;;;;10.71;63.89;102206.22;4976455;28;20062;-71
2022/11/30 03:34:59;;;;;;;22.85;21.08;;;;;;;10.70;63.82;102205.38;4976825;28;20050;-70
2022/11/30 03:37:24;;;;;;;23.10;21.30;;;;;;;10.70;63.72;102208.09;4991980;28;20031;-70
2022/11/30 03:39:49;;;;;;;23.85;22.15;;;;;;;10.69;63.93;102211.84;4976989;28;20459;-71
2022/11/30 03:42:15;;;;;;;22.77;20.98;;;;;;;10.70;63.93;102207.25;4976612;28;20035;-72
2022/11/30 03:44:40;;;;;;;24.48;22.35;;;;;;;10.70;63.80;102205.38;4991886;28;20483;-70
2022/11/30 03:47:06;;;;;;;24.27;22.45;;;;;;;10.71;64.20;102208.91;4976618;28;20468;-72
2022/11/30 03:49:31;;;;;;;24.85;22.67;;;;;;;10.70;63.39;102207.25;4976073;28;20058;-71
2022/11/30 03:51:56;;;;;;;24.40;22.30;;;;;;;10.70;63.79;102205.38;4991160;28;20034;-73
2022/11/30 03:54:22;;;;;;;23.05;21.08;;;;;;;10.68;63.91;102210.16;4976745;28;20541;-71
2022/11/30 03:56:47;;;;;;;24.20;22.02;;;;;;;10.70;63.83;102218.91;4976326;28;20113;-71
2022/11/30 03:59:12;;;;;;;22.73;20.98;;;;;;;10.68;63.83;102202.06;4976618;28;20066;-71
2022/11/30 04:01:39;;;;;;;26.33;24.02;;;;;;;10.70;63.58;102207.25;4976170;28;20042;-71
2022/11/30 04:04:05;;;;;;;24.45;22.52;;;;;;;10.68;63.93;102210.16;4976258;28;20041;-71
2022/11/30 04:06:30;;;;;;;23.92;21.98;;;;;;;10.68;63.74;102206.63;4991230;28;20118;-72
2022/11/30 04:08:56;;;;;;;22.48;20.67;;;;;;;10.70;63.83;102209.97;4976146;28;20111;-70
2022/11/30 04:11:21;;;;;;;24.35;22.35;;;;;;;10.68;63.86;102207.44;4976035;28;20037;-71
2022/11/30 04:13:46;;;;;;;25.67;23.58;;;;;;;10.68;63.98;102206.63;4976000;28;20042;-74
2022/11/30 04:16:12;;;;;;;23.30;21.20;;;;;;;10.69;63.85;102211.84;4974924;28;20442;-71
2022/11/30 04:18:38;;;;;;;23.70;21.48;;;;;;;10.68;63.78;102212.84;4974995;28;20039;-71
2022/11/30 04:21:05;;;;;;;23.15;21.45;;;;;;;10.68;63.87;102218.25;4991261;28;20042;-70
2022/11/30 04:23:33;;;;;;;23.00;21.30;;;;;;;10.67;63.78;102211.22;4975807;28;20083;-72
2022/11/30 04:26:02;;;;;;;22.15;20.25;;;;;;;10.68;63.80;102215.56;4990643;28;20034;-71
2022/11/30 04:28:27;;;;;;;23.25;21.25;;;;;;;10.67;63.96;102219.31;4975822;28;20027;-71
2022/11/30 04:30:53;;;;;;;24.65;22.55;;;;;;;10.67;63.86;102219.31;4974728;28;20041;-71
2022/11/30 04:33:19;;;;;;;23.92;21.98;;;;;;;10.67;63.98;102213.91;4975687;28;20118;-73
2022/11/30 04:35:47;;;;;;;25.38;22.98;;;;;;;10.68;63.94;102220.97;4974638;28;20158;-71
2022/11/30 04:38:12;;;;;;;24.33;22.45;;;;;;;10.66;63.87;102217.66;4975706;28;20030;-71
2022/11/30 04:40:41;;;;;;;24.70;22.60;;;;;;;10.67;63.79;102210.38;4990213;28;20440;-71
2022/11/30 04:43:08;;;;;;;24.65;22.55;;;;;;;10.68;63.83;102222.84;4974907;28;20506;-71
2022/11/30 04:45:33;;;;;;;25.83;23.73;;;;;;;10.67;63.51;102227.44;4974930;28;20039;-72
2022/11/30 04:47:59;;;;;;;24.27;22.25;;;;;;;10.67;63.88;102223.91;4975943;28;20080;-72
2022/11/30 04:50:24;;;;;;;23.20;21.40;;;;;;;10.67;63.82;102224.72;4990394;28;20117;-71
2022/11/30 04:52:50;;;;;;;24.88;22.63;;;;;;;10.66;64.07;102230.31;4990284;28;20471;-72
2022/11/30 04:55:18;;;;;;;23.63;21.73;;;;;;;10.66;63.82;102224.91;4976137;28;20178;-70
2022/11/30 04:57:45;;;;;;;26.30;24.00;;;;;;;10.66;63.86;102231.19;4975289;28;20035;-73
2022/11/30 05:00:11;;;;;;;25.67;23.75;;;;;;;10.65;63.79;102229.50;4990774;28;20100;-71
2022/11/30 05:02:37;;;;;;;22.80;21.20;;;;;;;10.66;63.65;102228.47;4975415;28;20027;-73
2022/11/30 05:05:02;;;;;;;23.55;21.65;;;;;;;10.65;63.84;102225.97;4990055;28;20037;-73
2022/11/30 05:07:28;;;;;;;25.48;23.48;;;;;;;10.66;63.83;102227.63;4975212;28;20066;-71
2022/11/30 05:09:53;;;;;;;24.23;22.23;;;;;;;10.66;63.84;102224.91;4975058;28;20034;-72
2022/11/30 05:12:18;;;;;;;22.73;21.05;;;;;;;10.64;63.76;102222.44;4974973;28;20110;-71
2022/11/30 05:14:44;;;;;;;23.73;21.73;;;;;;;10.66;63.91;102227.63;4973973;28;20125;-73
2022/11/30 05:17:09;;;;;;;23.70;21.70;;;;;;;10.64;63.80;102214.34;4989989;28;20463;-72
2022/11/30 05:19:34;;;;;;;22.15;20.35;;;;;;;10.65;63.79;102221.38;4990232;28;20034;-70
2022/11/30 05:22:00;;;;;;;23.95;22.15;;;;;;;10.65;63.65;102215.97;4973986;28;20097;-70
2022/11/30 05:24:25;;;;;;;23.65;21.80;;;;;;;10.65;63.59;102221.38;4973625;28;20383;-70
2022/11/30 05:26:50;;;;;;;22.05;20.42;;;;;;;10.64;63.69;102217.03;4973605;28;20479;-72
2022/11/30 05:29:15;;;;;;;23.35;21.35;;;;;;;10.64;64.08;102222.44;4973721;28;20491;-70
2022/11/30 05:31:41;;;;;;;23.60;21.88;;;;;;;10.65;63.76;102226.78;4974878;28;20457;-79
2022/11/30 05:34:06;;;;;;;23.20;21.48;;;;;;;10.64;63.92;102219.75;4974445;28;20035;-72
2022/11/30 05:36:32;;;;;;;24.67;22.77;;;;;;;10.64;63.96;102222.44;4973585;28;20118;-70
2022/11/30 05:38:57;;;;;;;25.25;23.25;;;;;;;10.64;63.55;102229.72;4990414;28;20046;-71
2022/11/30 05:41:22;;;;;;;21.98;20.13;;;;;;;10.64;63.92;102225.16;4989685;28;20030;-72
2022/11/30 05:43:48;;;;;;;25.30;23.25;;;;;;;10.64;63.99;102232.44;4974578;28;20042;-72
2022/11/30 05:46:13;;;;;;;24.05;21.85;;;;;;;10.63;63.76;102233.44;4974628;28;20471;-73
2022/11/30 05:48:38;;;;;;;23.92;21.98;;;;;;;10.63;63.77;102234.28;4978543;28;20138;-71
2022/11/30 05:51:05;;;;;;;25.60;23.45;;;;;;;10.63;63.79;102236.97;4980983;28;20035;-74
2022/11/30 05:53:30;;;;;;;25.52;23.30;;;;;;;10.63;63.81;102234.28;4981005;28;20029;-71
2022/11/30 05:55:55;;;;;;;26.70;24.33;;;;;;;10.63;63.78;102238.84;4981102;28;20031;-72
2022/11/30 05:58:21;;;;;;;25.15;23.15;;;;;;;10.62;63.62;102232.63;4996249;28;20031;-72
2022/11/30 06:00:46;;;;;;;25.08;23.15;;;;;;;10.62;63.70;102240.72;4995916;28;20034;-71
2022/11/30 06:03:11;;;;;;;24.85;22.73;;;;;;;10.62;63.88;102248.84;4979309;28;20125;-72
2022/11/30 06:05:37;;;;;;;25.88;23.75;;;;;;;10.63;63.68;102252.34;4980935;28;20035;-75
2022/11/30 06:08:02;;;;;;;25.58;23.30;;;;;;;10.62;63.80;102248.84;4995943;28;20118;-70
2022/11/30 06:10:27;;;;;;;23.40;21.08;;;;;;;10.63;63.75;102246.94;4979423;28;20158;-72
2022/11/30 06:12:53;;;;;;;24.63;22.60;;;;;;;10.62;63.70;102254.22;4980683;28;20468;-74
2022/11/30 06:15:18;;;;;;;23.73;21.73;;;;;;;10.61;63.69;102250.72;4981089;28;20110;-71
2022/11/30 06:17:43;;;;;;;23.02;21.13;;;;;;;10.61;63.90;102248.00;4980819;28;20116;-70
2022/11/30 06:20:09;;;;;;;22.50;20.75;;;;;;;10.61;63.50;102252.59;4981101;28;20109;-70
2022/11/30 06:22:34;;;;;;;22.75;20.85;;;;;;;10.60;63.92;102251.72;4981170;28;20038;-71
2022/11/30 06:25:00;;;;;;;23.88;21.92;;;;;;;10.61;63.87;102252.59;4995740;28;20030;-71
2022/11/30 06:27:29;;;;;;;24.15;22.40;;;;;;;10.59;63.75;102247.38;4980830;28;20385;-71
2022/11/30 06:29:55;;;;;;;24.90;22.70;;;;;;;10.60;63.96;102250.91;4980940;28;20030;-70
2022/11/30 06:32:20;;;;;;;22.67;20.75;;;;;;;10.59;63.82;102250.06;4979684;28;20110;-70
2022/11/30 06:34:45;;;;;;;23.17;21.45;;;;;;;10.59;63.78;102260.06;4980347;28;20483;-72
2022/11/30 06:37:11;;;;;;;23.17;21.38;;;;;;;10.59;63.75;102262.75;4995409;28;20038;-72
2022/11/30 06:39:36;;;;;;;23.17;21.38;;;;;;;10.59;63.78;102255.47;4979475;28;20539;-70
2022/11/30 06:42:02;;;;;;;24.98;23.10;;;;;;;10.59;63.93;102260.06;4980608;28;20041;-73
2022/11/30 06:44:27;;;;;;;24.48;22.67;;;;;;;10.59;63.79;102265.47;4981056;28;20027;-73
2022/11/30 06:46:52;;;;;;;24.13;22.17;;;;;;;10.58;63.76;102263.78;4980250;28;20026;-71
2022/11/30 06:49:19;;;;;;;23.65;21.63;;;;;;;10.59;63.79;102273.56;4980401;28;20130;-72
2022/11/30 06:51:44;;;;;;;23.33;21.58;;;;;;;10.58;63.87;102267.34;4995455;28;20074;-71
2022/11/30 06:54:09;;;;;;;24.85;22.88;;;;;;;10.57;63.91;102279.16;4979602;28;20066;-71
2022/11/30 06:56:35;;;;;;;24.17;22.35;;;;;;;10.58;63.88;102271.88;4979282;28;20491;-70
2022/11/30 06:59:00;;;;;;;23.42;21.40;;;;;;;10.58;63.78;102277.28;4978395;28;20086;-71
2022/11/30 07:01:25;;;;;;;23.73;21.92;;;;;;;10.58;63.95;102271.88;4977167;28;20038;-73
2022/11/30 07:03:51;;;;;;;24.60;22.75;;;;;;;10.57;63.91;102275.63;4992105;28;20053;-70
2022/11/30 07:06:16;;;;;;;21.92;20.13;;;;;;;10.57;63.65;102275.63;4977727;28;20027;-75
2022/11/30 07:08:42;;;;;;;22.58;20.77;;;;;;;10.57;63.88;102281.03;4976343;28;20121;-72
2022/11/30 07:11:09;;;;;;;24.85;22.55;;;;;;;10.57;63.83;102284.56;4977199;28;20030;-71
2022/11/30 07:13:36;;;;;;;23.20;21.13;;;;;;;10.57;63.82;102289.97;4977142;28;20026;-73
2022/11/30 07:16:05;;;;;;;25.52;23.27;;;;;;;10.56;63.89;102285.63;4977131;28;20049;-71
2022/11/30 07:18:31;;;;;;;23.83;21.95;;;;;;;10.56;63.74;102282.91;4976490;28;20042;-72
2022/11/30 07:21:01;;;;;;;23.38;21.40;;;;;;;10.56;63.73;102293.72;4975799;28;20034;-73
2022/11/30 07:26:11;;;;;;;25.42;23.38;;;;;;;10.55;63.65;102288.50;4976967;28;20046;-71
2022/11/30 07:28:50;;;;;;;22.92;21.13;;;;;;;10.55;63.74;102294.75;4991799;28;20039;-77
2022/11/30 07:31:27;;;;;;;21.95;20.13;;;;;;;10.55;63.89;102296.63;4976528;28;20026;-74
2022/11/30 07:33:53;;;;;;;27.60;25.17;;;;;;;10.54;63.76;102306.59;4976271;28;20035;-76
2022/11/30 07:36:21;;;;;;;23.05;21.17;;;;;;;10.54;63.71;102306.59;4976020;28;20027;-72
2022/11/30 07:38:47;;;;;;;23.98;22.00;;;;;;;10.55;63.65;102310.13;4976493;28;20031;-71
2022/11/30 07:41:13;;;;;;;25.60;23.30;;;;;;;10.55;63.83;102310.13;4976336;28;20037;-71
2022/11/30 07:43:38;;;;;;;23.67;21.85;;;;;;;10.55;63.93;102310.13;4991401;28;20065;-75
2022/11/30 07:46:05;;;;;;;23.83;22.15;;;;;;;10.53;63.95;102310.34;4976096;28;20041;-72
2022/11/30 07:48:30;;;;;;;24.13;22.33;;;;;;;10.54;63.95;102314.72;4976430;28;20133;-71
2022/11/30 07:51:03;;;;;;;23.92;21.55;;;;;;;10.54;63.84;102322.81;4976451;28;20066;-74
2022/11/30 07:53:30;;;;;;;22.42;20.63;;;;;;;10.53;63.88;102321.16;4975953;28;20057;-70
2022/11/30 07:56:02;;;;;;;22.48;20.85;;;;;;;10.53;63.81;102320.31;4974973;28;20535;-75
2022/11/30 07:58:29;;;;;;;23.38;21.45;;;;;;;10.52;63.76;102324.88;4976067;28;20034;-71
2022/11/30 08:00:59;;;;;;;24.58;22.63;;;;;;;10.52;63.83;102327.56;4975776;28;20066;-71
2022/11/30 08:03:25;;;;;;;22.42;20.83;;;;;;;10.52;63.95;102322.19;4990858;28;20042;-75
2022/11/30 08:05:50;;;;;;;24.55;22.58;;;;;;;10.52;63.76;102330.28;4974661;28;20039;-71
2022/11/30 08:08:15;;;;;;;24.70;22.75;;;;;;;10.53;63.86;102336.50;4975477;28;20035;-71
2022/11/30 08:10:41;;;;;;;23.73;21.80;;;;;;;10.53;63.77;102341.91;4974950;28;20041;-72
2022/11/30 08:13:06;;;;;;;24.58;22.65;;;;;;;10.52;63.77;102337.56;4975451;28;20031;-72
2022/11/30 08:15:31;;;;;;;23.55;21.65;;;;;;;10.52;63.64;102337.56;4990399;28;20038;-77
2022/11/30 08:18:03;;;;;;;23.10;21.30;;;;;;;10.52;63.90;102345.66;4990670;28;20097;-75
2022/11/30 08:20:29;;;;;;;22.27;20.63;;;;;;;10.52;63.90;102348.38;4974993;28;20043;-74
2022/11/30 08:22:54;;;;;;;23.50;21.65;;;;;;;10.52;63.77;102348.38;4989681;28;20052;-77
2022/11/30 08:25:19;;;;;;;22.17;20.73;;;;;;;10.53;63.78;102350.03;4974902;28;20095;-77
2022/11/30 08:27:45;;;;;;;25.17;23.02;;;;;;;10.52;63.97;102345.66;4975302;28;20417;-76
2022/11/30 08:30:10;;;;;;;24.42;22.40;;;;;;;10.52;63.89;102351.06;4990438;28;20038;-70
2022/11/30 08:32:36;;;;;;;23.33;21.50;;;;;;;10.51;63.94;102347.53;4990017;28;20038;-74
2022/11/30 08:35:01;;;;;;;23.15;21.40;;;;;;;10.51;63.87;102361.06;4974303;28;20126;-75
2022/11/30 08:37:27;;;;;;;25.15;23.35;;;;;;;10.50;63.77;102353.97;4975328;28;20459;-73
2022/11/30 08:39:52;;;;;;;23.27;21.48;;;;;;;10.51;63.75;102365.63;4975062;28;20066;-74
2022/11/30 08:42:17;;;;;;;23.58;21.70;;;;;;;10.51;63.82;102360.22;4974665;28;20079;-72
2022/11/30 08:44:43;;;;;;;24.00;22.30;;;;;;;10.50;63.78;102370.16;4974768;28;20456;-72
2022/11/30 08:47:08;;;;;;;25.05;23.05;;;;;;;10.50;63.66;102367.47;4974889;28;20122;-73
2022/11/30 08:49:33;;;;;;;24.65;22.67;;;;;;;10.50;63.98;102364.78;4989402;28;20065;-74
2022/11/30 08:51:59;;;;;;;24.35;22.30;;;;;;;10.50;63.97;102364.78;4974790;28;20034;-73
2022/11/30 08:54:26;;;;;;;22.50;20.70;;;;;;;10.50;64.05;102362.06;4973546;28;20027;-73
2022/11/30 08:56:51;;;;;;;23.05;21.15;;;;;;;10.50;63.90;102366.66;4974409;28;20426;-75
2022/11/30 08:59:16;;;;;;;25.00;23.05;;;;;;;10.51;63.79;102362.94;4973995;28;20027;-72
2022/11/30 09:01:42;;;;;;;22.65;20.85;;;;;;;10.50;63.82;102380.16;4989826;28;20053;-75
2022/11/30 09:04:07;;;;;;;25.40;23.23;;;;;;;10.50;63.90;102374.75;4973429;28;20027;-73
2022/11/30 09:06:32;;;;;;;25.00;22.92;;;;;;;10.50;63.58;102382.84;4973297;28;20038;-72
2022/11/30 09:08:58;;;;;;;22.90;21.17;;;;;;;10.50;63.71;102380.16;4974529;28;20460;-71
2022/11/30 09:11:30;;;;;;;23.60;21.70;;;;;;;10.49;63.71;102381.19;4989328;28;20066;-73
2022/11/30 09:13:58;;;;;;;21.73;20.23;;;;;;;10.49;63.71;102386.59;4973891;28;20367;-73
2022/11/30 09:16:24;;;;;;;22.43;20.67;;;;;;;10.49;63.82;102386.59;4974953;28;20074;-71
2022/11/30 09:18:50;;;;;;;22.92;21.23;;;;;;;10.50;63.74;102385.56;4974721;28;20031;-71
2022/11/30 09:21:19;;;;;;;24.90;22.63;;;;;;;10.48;63.84;102383.06;4974217;28;20066;-74
2022/11/30 09:23:45;;;;;;;23.10;21.40;;;;;;;10.48;63.60;102377.69;4973874;28;20037;-73
2022/11/30 09:26:13;;;;;;;26.13;23.98;;;;;;;10.49;63.85;102381.19;4989069;28;20035;-74
2022/11/30 09:28:39;;;;;;;21.63;20.02;;;;;;;10.48;63.86;102382.22;4973190;28;20031;-72
2022/11/30 09:31:07;;;;;;;23.92;21.95;;;;;;;10.48;63.86;102387.63;4974064;28;20466;-72
2022/11/30 09:33:33;;;;;;;23.58;21.77;;;;;;;10.48;63.71;102396.59;4972633;28;20094;-70
2022/11/30 09:36:03;;;;;;;25.55;23.67;;;;;;;10.48;63.93;102396.59;4973876;28;20043;-74
2022/11/30 09:38:28;;;;;;;23.13;21.40;;;;;;;10.48;63.45;102390.31;4974625;28;20063;-72
2022/11/30 09:40:56;;;;;;;22.17;20.60;;;;;;;10.48;63.62;102398.44;4972830;28;20039;-71
2022/11/30 09:43:50;;;;;;;27.02;24.55;;;;;;;10.48;63.75;102388.47;4988916;28;20046;-71
2022/11/30 09:46:16;;;;;;;25.00;22.88;;;;;;;10.47;63.77;102386.78;4974203;28;20058;-75
2022/11/30 09:48:41;;;;;;;23.23;21.38;;;;;;;10.47;63.86;102389.50;4973790;28;20046;-71
2022/11/30 09:51:14;;;;;;;26.67;24.55;;;;;;;10.48;63.58;102387.63;4989062;28;20097;-71
2022/11/30 09:53:43;;;;;;;24.60;22.35;;;;;;;10.48;63.79;102391.19;4974498;28;20031;-71
2022/11/30 09:56:26;;;;;;;23.50;21.73;;;;;;;10.48;64.11;102388.47;4973837;28;20049;-72
2022/11/30 09:59:05;;;;;;;23.70;22.00;;;;;;;10.48;63.70;102393.03;4974367;28;20038;-74
2022/11/30 10:01:33;;;;;;;22.58;20.77;;;;;;;10.47;63.82;102386.78;4973686;28;20093;-71
2022/11/30 10:04:00;;;;;;;25.15;23.25;;;;;;;10.48;63.75;102401.13;4974147;28;20042;-71
2022/11/30 10:06:41;;;;;;;24.73;22.55;;;;;;;10.49;63.66;102394.72;4974052;28;20067;-71
2022/11/30 10:09:24;;;;;;;25.13;22.60;;;;;;;10.49;64.10;102394.72;4974704;28;20158;-74
2022/11/30 10:12:00;;;;;;;23.42;21.42;;;;;;;10.48;63.80;102402.00;4974070;28;20030;-71
2022/11/30 10:14:38;;;;;;;26.95;24.23;;;;;;;10.49;63.91;102394.72;4973963;28;20093;-75
2022/11/30 10:17:04;;;;;;;24.60;22.70;;;;;;;10.49;63.84;102394.72;4974426;28;20031;-72
2022/11/30 10:19:47;;;;;;;25.15;22.83;;;;;;;10.50;63.87;102397.19;4973896;28;20057;-75
2022/11/30 10:22:15;;;;;;;24.35;22.15;;;;;;;10.49;63.73;102386.59;4974249;28;20034;-77
2022/11/30 10:25:05;;;;;;;24.52;22.52;;;;;;;10.48;64.04;102388.47;4988833;28;20045;-76
2022/11/30 10:27:43;;;;;;;25.73;23.25;;;;;;;10.49;63.93;102389.31;4973803;28;20035;-73
2022/11/30 10:30:14;;;;;;;24.58;22.27;;;;;;;10.49;63.85;102389.31;4973949;28;20038;-72
2022/11/30 10:32:42;;;;;;;24.85;22.75;;;;;;;10.50;64.04;102383.69;4973908;28;20027;-72
2022/11/30 10:35:18;;;;;;;26.08;23.83;;;;;;;10.51;63.80;102387.25;4976753;28;20031;-73
2022/11/30 10:37:46;;;;;;;24.92;22.92;;;;;;;10.51;63.83;102385.38;4977582;28;20035;-71
2022/11/30 10:40:11;;;;;;;24.23;22.10;;;;;;;10.52;63.85;102388.91;4976254;28;20113;-71
2022/11/30 10:42:41;;;;;;;25.30;22.98;;;;;;;10.53;63.65;102390.56;4991870;28;20471;-72
2022/11/30 10:45:15;;;;;;;25.05;23.00;;;;;;;10.53;63.95;102385.16;4977336;28;20435;-73
2022/11/30 10:47:49;;;;;;;24.35;22.27;;;;;;;10.53;63.99;102379.75;4977613;28;20451;-76
2022/11/30 10:50:16;;;;;;;23.60;21.73;;;;;;;10.53;63.69;102391.41;4977577;28;20475;-72
2022/11/30 10:52:50;;;;;;;22.98;21.23;;;;;;;10.55;63.92;102392.00;4976341;28;20034;-72
2022/11/30 10:55:23;;;;;;;25.08;22.88;;;;;;;10.54;63.87;102382.25;4977865;28;20030;-74
2022/11/30 10:57:53;;;;;;;24.88;22.65;;;;;;;10.55;63.77;102380.38;4977375;28;20027;-71
2022/11/30 11:00:19;;;;;;;25.88;23.60;;;;;;;10.55;63.84;102381.22;4977222;28;20026;-74
2022/11/30 11:02:49;;;;;;;25.70;23.58;;;;;;;10.56;63.97;102384.75;4975407;28;20045;-77
2022/11/30 11:05:22;;;;;;;23.75;21.80;;;;;;;10.56;63.84;102380.19;4975913;28;20424;-74
2022/11/30 11:07:57;;;;;;;26.02;23.45;;;;;;;10.57;63.66;102372.91;4976915;28;20039;-71
2022/11/30 11:10:29;;;;;;;24.05;22.02;;;;;;;10.56;63.85;102377.50;4976569;28;20438;-75
2022/11/30 11:12:55;;;;;;;25.88;24.00;;;;;;;10.58;63.90;102374.56;4976694;28;20448;-72
2022/11/30 11:15:22;;;;;;;24.63;22.40;;;;;;;10.58;63.88;102378.13;4975160;28;20041;-71